sensor_id;sensor_type;location;lat;lon;timestamp;P1;durP1;ratioP1;P2;durP2;ratioP2
51987;SDS011;38003;52.012;4.346;2023-03-17T00:00:40;4.17;;;2.70;;
51987;SDS011;38003;52.012;4.346;2023-03-17T00:03:09;3.63;;;2.90;;
51987;SDS011;38003;52.012;4.346;2023-03-17T00:05:38;3.40;;;2.60;;
51987;SDS011;38003;52.012;4.346;2023-03-17T00:08:09;5.27;;;2.90;;
51987;SDS011;38003;52.012;4.346;2023-03-17T00:10:38;3.67;;;2.70;;
51987;SDS011;38003;52.012;4.346;2023-03-17T00:13:09;4.60;;;2.60;;
51987;SDS011;38003;52.012;4.346;2023-03-17T00:15:37;3.43;;;2.60;;
51987;SDS011;38003;52.012;4.346;2023-03-17T00:18:10;2.93;;;2.43;;
51987;SDS011;38003;52.012;4.346;2023-03-17T00:20:39;4.33;;;2.90;;
51987;SDS011;38003;52.012;4.346;2023-03-17T00:23:08;3.80;;;2.63;;
51987;SDS011;38003;52.012;4.346;2023-03-17T00:25:39;4.37;;;2.70;;
51987;SDS011;38003;52.012;4.346;2023-03-17T00:28:09;4.57;;;2.87;;
51987;SDS011;38003;52.012;4.346;2023-03-17T00:30:40;4.90;;;2.90;;
51987;SDS011;38003;52.012;4.346;2023-03-17T00:33:09;5.00;;;3.03;;
51987;SDS011;38003;52.012;4.346;2023-03-17T00:35:38;3.13;;;2.70;;
51987;SDS011;38003;52.012;4.346;2023-03-17T00:38:08;5.63;;;2.90;;
51987;SDS011;38003;52.012;4.346;2023-03-17T00:40:38;4.17;;;2.63;;
51987;SDS011;38003;52.012;4.346;2023-03-17T00:43:06;3.43;;;2.73;;
51987;SDS011;38003;52.012;4.346;2023-03-17T00:45:35;3.20;;;2.57;;
51987;SDS011;38003;52.012;4.346;2023-03-17T00:48:04;4.43;;;2.73;;
51987;SDS011;38003;52.012;4.346;2023-03-17T00:50:35;4.23;;;3.10;;
51987;SDS011;38003;52.012;4.346;2023-03-17T00:53:04;4.60;;;2.77;;
51987;SDS011;38003;52.012;4.346;2023-03-17T00:55:33;4.97;;;2.90;;
51987;SDS011;38003;52.012;4.346;2023-03-17T00:58:02;3.83;;;2.57;;
51987;SDS011;38003;52.012;4.346;2023-03-17T01:00:37;5.37;;;2.57;;
51987;SDS011;38003;52.012;4.346;2023-03-17T01:03:07;4.20;;;3.17;;
51987;SDS011;38003;52.012;4.346;2023-03-17T01:05:37;4.37;;;2.83;;
51987;SDS011;38003;52.012;4.346;2023-03-17T01:08:06;2.90;;;2.70;;
51987;SDS011;38003;52.012;4.346;2023-03-17T01:10:35;3.33;;;2.80;;
51987;SDS011;38003;52.012;4.346;2023-03-17T01:13:04;3.83;;;3.03;;
51987;SDS011;38003;52.012;4.346;2023-03-17T01:15:32;4.10;;;3.00;;
51987;SDS011;38003;52.012;4.346;2023-03-17T01:18:01;5.87;;;3.13;;
51987;SDS011;38003;52.012;4.346;2023-03-17T01:20:30;3.27;;;2.63;;
51987;SDS011;38003;52.012;4.346;2023-03-17T01:23:01;2.90;;;2.60;;
51987;SDS011;38003;52.012;4.346;2023-03-17T01:25:29;3.60;;;2.50;;
51987;SDS011;38003;52.012;4.346;2023-03-17T01:27:57;3.10;;;2.80;;
51987;SDS011;38003;52.012;4.346;2023-03-17T01:30:26;5.77;;;3.27;;
51987;SDS011;38003;52.012;4.346;2023-03-17T01:32:55;3.83;;;2.83;;
51987;SDS011;38003;52.012;4.346;2023-03-17T01:35:24;6.43;;;2.63;;
51987;SDS011;38003;52.012;4.346;2023-03-17T01:37:54;3.67;;;2.87;;
51987;SDS011;38003;52.012;4.346;2023-03-17T01:40:26;3.40;;;2.97;;
51987;SDS011;38003;52.012;4.346;2023-03-17T01:42:58;5.30;;;2.60;;
51987;SDS011;38003;52.012;4.346;2023-03-17T01:48:14;3.83;;;2.57;;
51987;SDS011;38003;52.012;4.346;2023-03-17T01:50:43;3.47;;;3.10;;
51987;SDS011;38003;52.012;4.346;2023-03-17T01:53:13;2.73;;;2.40;;
51987;SDS011;38003;52.012;4.346;2023-03-17T01:55:43;3.40;;;3.10;;
51987;SDS011;38003;52.012;4.346;2023-03-17T01:58:12;3.60;;;2.80;;
51987;SDS011;38003;52.012;4.346;2023-03-17T02:00:42;5.27;;;2.90;;
51987;SDS011;38003;52.012;4.346;2023-03-17T02:03:11;3.00;;;2.47;;
51987;SDS011;38003;52.012;4.346;2023-03-17T02:05:40;5.07;;;2.83;;
51987;SDS011;38003;52.012;4.346;2023-03-17T02:08:09;3.90;;;2.70;;
51987;SDS011;38003;52.012;4.346;2023-03-17T02:10:38;3.30;;;2.50;;
51987;SDS011;38003;52.012;4.346;2023-03-17T02:13:09;3.80;;;2.90;;
51987;SDS011;38003;52.012;4.346;2023-03-17T02:15:37;3.73;;;3.10;;
51987;SDS011;38003;52.012;4.346;2023-03-17T02:18:07;4.37;;;2.93;;
51987;SDS011;38003;52.012;4.346;2023-03-17T02:23:25;2.73;;;2.53;;
51987;SDS011;38003;52.012;4.346;2023-03-17T02:25:53;3.83;;;2.70;;
51987;SDS011;38003;52.012;4.346;2023-03-17T02:28:22;4.33;;;2.70;;
51987;SDS011;38003;52.012;4.346;2023-03-17T02:30:52;3.13;;;2.60;;
51987;SDS011;38003;52.012;4.346;2023-03-17T02:33:20;4.77;;;2.53;;
51987;SDS011;38003;52.012;4.346;2023-03-17T02:35:49;2.80;;;2.50;;
51987;SDS011;38003;52.012;4.346;2023-03-17T02:38:18;3.57;;;2.53;;
51987;SDS011;38003;52.012;4.346;2023-03-17T02:40:48;3.13;;;2.50;;
51987;SDS011;38003;52.012;4.346;2023-03-17T02:43:16;3.80;;;2.80;;
51987;SDS011;38003;52.012;4.346;2023-03-17T02:45:44;3.00;;;2.60;;
51987;SDS011;38003;52.012;4.346;2023-03-17T02:48:13;3.40;;;2.70;;
51987;SDS011;38003;52.012;4.346;2023-03-17T02:50:41;4.70;;;3.07;;
51987;SDS011;38003;52.012;4.346;2023-03-17T02:53:09;3.83;;;2.87;;
51987;SDS011;38003;52.012;4.346;2023-03-17T02:55:38;3.57;;;2.40;;
51987;SDS011;38003;52.012;4.346;2023-03-17T02:58:08;3.43;;;2.73;;
51987;SDS011;38003;52.012;4.346;2023-03-17T03:00:36;3.33;;;2.40;;
51987;SDS011;38003;52.012;4.346;2023-03-17T03:03:05;3.00;;;2.70;;
51987;SDS011;38003;52.012;4.346;2023-03-17T03:05:34;5.77;;;3.27;;
51987;SDS011;38003;52.012;4.346;2023-03-17T03:08:02;3.93;;;2.80;;
51987;SDS011;38003;52.012;4.346;2023-03-17T03:10:31;3.47;;;2.70;;
51987;SDS011;38003;52.012;4.346;2023-03-17T03:12:59;3.70;;;2.40;;
51987;SDS011;38003;52.012;4.346;2023-03-17T03:15:29;3.07;;;2.30;;
51987;SDS011;38003;52.012;4.346;2023-03-17T03:17:57;3.93;;;2.50;;
51987;SDS011;38003;52.012;4.346;2023-03-17T03:20:26;3.33;;;2.60;;
51987;SDS011;38003;52.012;4.346;2023-03-17T03:22:54;3.90;;;2.57;;
51987;SDS011;38003;52.012;4.346;2023-03-17T03:25:22;4.13;;;2.77;;
51987;SDS011;38003;52.012;4.346;2023-03-17T03:27:51;3.03;;;2.53;;
51987;SDS011;38003;52.012;4.346;2023-03-17T03:30:19;3.23;;;2.50;;
51987;SDS011;38003;52.012;4.346;2023-03-17T03:32:49;3.47;;;2.40;;
51987;SDS011;38003;52.012;4.346;2023-03-17T03:35:17;2.80;;;2.50;;
51987;SDS011;38003;52.012;4.346;2023-03-17T03:37:45;3.77;;;2.60;;
51987;SDS011;38003;52.012;4.346;2023-03-17T03:40:13;5.83;;;2.50;;
51987;SDS011;38003;52.012;4.346;2023-03-17T03:42:42;3.50;;;2.70;;
51987;SDS011;38003;52.012;4.346;2023-03-17T03:45:10;3.40;;;2.67;;
51987;SDS011;38003;52.012;4.346;2023-03-17T03:47:38;3.10;;;2.80;;
51987;SDS011;38003;52.012;4.346;2023-03-17T03:50:08;2.90;;;2.43;;
51987;SDS011;38003;52.012;4.346;2023-03-17T03:52:37;3.87;;;2.47;;
51987;SDS011;38003;52.012;4.346;2023-03-17T03:55:05;2.97;;;2.67;;
51987;SDS011;38003;52.012;4.346;2023-03-17T03:57:34;3.90;;;2.50;;
51987;SDS011;38003;52.012;4.346;2023-03-17T04:00:02;3.47;;;2.20;;
51987;SDS011;38003;52.012;4.346;2023-03-17T04:02:32;5.60;;;2.70;;
51987;SDS011;38003;52.012;4.346;2023-03-17T04:05:01;5.83;;;2.87;;
51987;SDS011;38003;52.012;4.346;2023-03-17T04:07:31;3.10;;;2.40;;
51987;SDS011;38003;52.012;4.346;2023-03-17T04:09:59;4.00;;;2.37;;
51987;SDS011;38003;52.012;4.346;2023-03-17T04:12:27;5.60;;;2.73;;
51987;SDS011;38003;52.012;4.346;2023-03-17T04:14:55;4.13;;;2.50;;
51987;SDS011;38003;52.012;4.346;2023-03-17T04:17:24;4.43;;;2.50;;
51987;SDS011;38003;52.012;4.346;2023-03-17T04:19:52;3.63;;;2.60;;
51987;SDS011;38003;52.012;4.346;2023-03-17T04:22:20;3.37;;;2.37;;
51987;SDS011;38003;52.012;4.346;2023-03-17T04:24:50;4.10;;;2.40;;
51987;SDS011;38003;52.012;4.346;2023-03-17T04:27:18;4.63;;;2.33;;
51987;SDS011;38003;52.012;4.346;2023-03-17T04:29:47;4.57;;;2.27;;
51987;SDS011;38003;52.012;4.346;2023-03-17T04:32:15;4.03;;;2.40;;
51987;SDS011;38003;52.012;4.346;2023-03-17T04:34:43;2.60;;;2.40;;
51987;SDS011;38003;52.012;4.346;2023-03-17T04:37:12;3.83;;;2.50;;
51987;SDS011;38003;52.012;4.346;2023-03-17T04:39:40;4.73;;;2.50;;
51987;SDS011;38003;52.012;4.346;2023-03-17T04:42:10;4.67;;;2.60;;
51987;SDS011;38003;52.012;4.346;2023-03-17T04:44:38;3.90;;;2.47;;
51987;SDS011;38003;52.012;4.346;2023-03-17T04:47:08;4.23;;;2.50;;
51987;SDS011;38003;52.012;4.346;2023-03-17T04:49:36;3.23;;;2.40;;
51987;SDS011;38003;52.012;4.346;2023-03-17T04:52:05;4.20;;;2.40;;
51987;SDS011;38003;52.012;4.346;2023-03-17T04:54:33;3.50;;;2.50;;
51987;SDS011;38003;52.012;4.346;2023-03-17T04:57:02;2.83;;;2.37;;
51987;SDS011;38003;52.012;4.346;2023-03-17T04:59:32;4.30;;;2.70;;
51987;SDS011;38003;52.012;4.346;2023-03-17T05:02:00;3.03;;;2.23;;
51987;SDS011;38003;52.012;4.346;2023-03-17T05:04:28;3.93;;;2.60;;
51987;SDS011;38003;52.012;4.346;2023-03-17T05:06:57;2.90;;;2.60;;
51987;SDS011;38003;52.012;4.346;2023-03-17T05:09:25;3.67;;;2.50;;
51987;SDS011;38003;52.012;4.346;2023-03-17T05:11:54;3.13;;;2.27;;
51987;SDS011;38003;52.012;4.346;2023-03-17T05:14:22;3.57;;;2.43;;
51987;SDS011;38003;52.012;4.346;2023-03-17T05:16:52;3.10;;;2.17;;
51987;SDS011;38003;52.012;4.346;2023-03-17T05:19:20;5.03;;;2.57;;
51987;SDS011;38003;52.012;4.346;2023-03-17T05:21:48;4.90;;;2.40;;
51987;SDS011;38003;52.012;4.346;2023-03-17T05:24:17;3.97;;;2.30;;
51987;SDS011;38003;52.012;4.346;2023-03-17T05:26:45;3.57;;;2.47;;
51987;SDS011;38003;52.012;4.346;2023-03-17T05:29:13;4.57;;;2.10;;
51987;SDS011;38003;52.012;4.346;2023-03-17T05:31:42;4.40;;;2.50;;
51987;SDS011;38003;52.012;4.346;2023-03-17T05:34:11;4.03;;;2.53;;
51987;SDS011;38003;52.012;4.346;2023-03-17T05:36:40;4.30;;;2.53;;
51987;SDS011;38003;52.012;4.346;2023-03-17T05:39:08;4.53;;;2.60;;
51987;SDS011;38003;52.012;4.346;2023-03-17T05:41:39;5.47;;;2.80;;
51987;SDS011;38003;52.012;4.346;2023-03-17T05:44:07;2.90;;;2.60;;
51987;SDS011;38003;52.012;4.346;2023-03-17T05:46:36;4.07;;;2.77;;
51987;SDS011;38003;52.012;4.346;2023-03-17T05:49:04;5.83;;;2.77;;
51987;SDS011;38003;52.012;4.346;2023-03-17T05:51:34;2.77;;;2.53;;
51987;SDS011;38003;52.012;4.346;2023-03-17T05:54:02;3.50;;;2.80;;
51987;SDS011;38003;52.012;4.346;2023-03-17T05:56:30;4.77;;;2.87;;
51987;SDS011;38003;52.012;4.346;2023-03-17T05:58:59;6.77;;;2.70;;
51987;SDS011;38003;52.012;4.346;2023-03-17T06:01:27;6.97;;;2.93;;
51987;SDS011;38003;52.012;4.346;2023-03-17T06:03:56;3.37;;;2.60;;
51987;SDS011;38003;52.012;4.346;2023-03-17T06:06:26;3.67;;;2.70;;
51987;SDS011;38003;52.012;4.346;2023-03-17T06:08:55;4.10;;;2.83;;
51987;SDS011;38003;52.012;4.346;2023-03-17T06:11:24;7.50;;;2.73;;
51987;SDS011;38003;52.012;4.346;2023-03-17T06:13:52;4.17;;;2.70;;
51987;SDS011;38003;52.012;4.346;2023-03-17T06:16:20;3.93;;;2.60;;
51987;SDS011;38003;52.012;4.346;2023-03-17T06:18:49;3.37;;;2.70;;
51987;SDS011;38003;52.012;4.346;2023-03-17T06:21:17;4.27;;;2.87;;
51987;SDS011;38003;52.012;4.346;2023-03-17T06:23:46;4.80;;;2.90;;
51987;SDS011;38003;52.012;4.346;2023-03-17T06:26:15;4.07;;;2.17;;
51987;SDS011;38003;52.012;4.346;2023-03-17T06:28:44;4.67;;;3.40;;
51987;SDS011;38003;52.012;4.346;2023-03-17T06:31:12;6.70;;;2.93;;
51987;SDS011;38003;52.012;4.346;2023-03-17T06:33:40;3.97;;;2.67;;
51987;SDS011;38003;52.012;4.346;2023-03-17T06:36:08;7.10;;;3.00;;
51987;SDS011;38003;52.012;4.346;2023-03-17T06:38:37;4.50;;;2.70;;
51987;SDS011;38003;52.012;4.346;2023-03-17T06:41:05;5.97;;;2.67;;
51987;SDS011;38003;52.012;4.346;2023-03-17T06:43:35;8.40;;;3.27;;
51987;SDS011;38003;52.012;4.346;2023-03-17T06:46:04;5.73;;;2.90;;
51987;SDS011;38003;52.012;4.346;2023-03-17T06:48:32;4.23;;;3.03;;
51987;SDS011;38003;52.012;4.346;2023-03-17T06:51:00;6.23;;;3.30;;
51987;SDS011;38003;52.012;4.346;2023-03-17T06:53:29;4.13;;;2.77;;
51987;SDS011;38003;52.012;4.346;2023-03-17T06:55:57;4.27;;;3.07;;
51987;SDS011;38003;52.012;4.346;2023-03-17T06:58:25;5.50;;;3.03;;
51987;SDS011;38003;52.012;4.346;2023-03-17T07:00:55;6.03;;;2.80;;
51987;SDS011;38003;52.012;4.346;2023-03-17T07:03:23;5.30;;;2.90;;
51987;SDS011;38003;52.012;4.346;2023-03-17T07:05:52;8.00;;;3.23;;
51987;SDS011;38003;52.012;4.346;2023-03-17T07:08:20;5.03;;;3.00;;
51987;SDS011;38003;52.012;4.346;2023-03-17T07:10:48;5.97;;;3.40;;
51987;SDS011;38003;52.012;4.346;2023-03-17T07:13:17;3.57;;;3.27;;
51987;SDS011;38003;52.012;4.346;2023-03-17T07:15:46;7.87;;;3.43;;
51987;SDS011;38003;52.012;4.346;2023-03-17T07:18:16;5.33;;;3.30;;
51987;SDS011;38003;52.012;4.346;2023-03-17T07:20:45;8.37;;;3.70;;
51987;SDS011;38003;52.012;4.346;2023-03-17T07:23:13;4.93;;;3.80;;
51987;SDS011;38003;52.012;4.346;2023-03-17T07:25:42;6.90;;;3.57;;
51987;SDS011;38003;52.012;4.346;2023-03-17T07:28:12;5.47;;;3.33;;
51987;SDS011;38003;52.012;4.346;2023-03-17T07:30:40;6.90;;;3.73;;
51987;SDS011;38003;52.012;4.346;2023-03-17T07:33:12;9.00;;;3.70;;
51987;SDS011;38003;52.012;4.346;2023-03-17T07:35:42;6.27;;;3.33;;
51987;SDS011;38003;52.012;4.346;2023-03-17T07:38:10;6.67;;;3.20;;
51987;SDS011;38003;52.012;4.346;2023-03-17T07:40:38;5.33;;;3.50;;
51987;SDS011;38003;52.012;4.346;2023-03-17T07:43:07;3.70;;;3.20;;
51987;SDS011;38003;52.012;4.346;2023-03-17T07:45:35;5.80;;;3.57;;
51987;SDS011;38003;52.012;4.346;2023-03-17T07:48:04;5.40;;;3.50;;
51987;SDS011;38003;52.012;4.346;2023-03-17T07:50:33;5.10;;;3.60;;
51987;SDS011;38003;52.012;4.346;2023-03-17T07:53:03;5.47;;;3.43;;
51987;SDS011;38003;52.012;4.346;2023-03-17T07:55:31;6.00;;;3.40;;
51987;SDS011;38003;52.012;4.346;2023-03-17T07:58:00;4.10;;;3.43;;
51987;SDS011;38003;52.012;4.346;2023-03-17T08:00:29;5.97;;;4.03;;
51987;SDS011;38003;52.012;4.346;2023-03-17T08:02:57;8.13;;;4.47;;
51987;SDS011;38003;52.012;4.346;2023-03-17T08:05:35;6.30;;;3.80;;
51987;SDS011;38003;52.012;4.346;2023-03-17T08:08:05;5.20;;;3.60;;
51987;SDS011;38003;52.012;4.346;2023-03-17T08:10:33;5.10;;;3.83;;
51987;SDS011;38003;52.012;4.346;2023-03-17T08:13:01;6.73;;;4.17;;
51987;SDS011;38003;52.012;4.346;2023-03-17T08:15:30;5.63;;;3.77;;
51987;SDS011;38003;52.012;4.346;2023-03-17T08:17:58;7.47;;;3.70;;
51987;SDS011;38003;52.012;4.346;2023-03-17T08:20:26;7.50;;;4.17;;
51987;SDS011;38003;52.012;4.346;2023-03-17T08:22:55;7.80;;;3.80;;
51987;SDS011;38003;52.012;4.346;2023-03-17T08:25:25;7.47;;;4.17;;
51987;SDS011;38003;52.012;4.346;2023-03-17T08:27:54;7.70;;;3.90;;
51987;SDS011;38003;52.012;4.346;2023-03-17T08:30:22;6.73;;;3.77;;
51987;SDS011;38003;52.012;4.346;2023-03-17T08:32:51;5.50;;;3.83;;
51987;SDS011;38003;52.012;4.346;2023-03-17T08:35:19;5.40;;;4.00;;
51987;SDS011;38003;52.012;4.346;2023-03-17T08:37:48;6.53;;;4.13;;
51987;SDS011;38003;52.012;4.346;2023-03-17T08:40:17;6.67;;;4.23;;
51987;SDS011;38003;52.012;4.346;2023-03-17T08:42:47;5.93;;;3.87;;
51987;SDS011;38003;52.012;4.346;2023-03-17T08:45:16;8.03;;;4.20;;
51987;SDS011;38003;52.012;4.346;2023-03-17T08:47:44;7.57;;;4.60;;
51987;SDS011;38003;52.012;4.346;2023-03-17T08:50:14;6.13;;;4.27;;
51987;SDS011;38003;52.012;4.346;2023-03-17T08:52:43;7.00;;;4.43;;
51987;SDS011;38003;52.012;4.346;2023-03-17T08:55:12;7.40;;;4.47;;
51987;SDS011;38003;52.012;4.346;2023-03-17T08:57:41;6.67;;;3.90;;
51987;SDS011;38003;52.012;4.346;2023-03-17T09:00:12;9.20;;;5.13;;
51987;SDS011;38003;52.012;4.346;2023-03-17T09:02:41;7.80;;;4.50;;
51987;SDS011;38003;52.012;4.346;2023-03-17T09:05:11;9.13;;;5.50;;
51987;SDS011;38003;52.012;4.346;2023-03-17T09:07:39;5.80;;;4.63;;
51987;SDS011;38003;52.012;4.346;2023-03-17T09:10:09;7.20;;;5.07;;
51987;SDS011;38003;52.012;4.346;2023-03-17T09:12:38;6.10;;;4.33;;
51987;SDS011;38003;52.012;4.346;2023-03-17T09:15:08;7.83;;;4.60;;
51987;SDS011;38003;52.012;4.346;2023-03-17T09:17:38;7.63;;;5.27;;
51987;SDS011;38003;52.012;4.346;2023-03-17T09:20:09;7.40;;;4.57;;
51987;SDS011;38003;52.012;4.346;2023-03-17T09:22:38;7.70;;;5.27;;
51987;SDS011;38003;52.012;4.346;2023-03-17T09:25:07;8.73;;;4.53;;
51987;SDS011;38003;52.012;4.346;2023-03-17T09:27:36;7.20;;;4.80;;
51987;SDS011;38003;52.012;4.346;2023-03-17T09:30:04;7.20;;;4.83;;
51987;SDS011;38003;52.012;4.346;2023-03-17T09:32:32;6.40;;;4.40;;
51987;SDS011;38003;52.012;4.346;2023-03-17T09:35:02;8.73;;;4.77;;
51987;SDS011;38003;52.012;4.346;2023-03-17T09:37:31;6.53;;;4.80;;
51987;SDS011;38003;52.012;4.346;2023-03-17T09:40:00;5.83;;;4.23;;
51987;SDS011;38003;52.012;4.346;2023-03-17T09:42:35;6.60;;;5.03;;
51987;SDS011;38003;52.012;4.346;2023-03-17T09:45:10;7.60;;;4.60;;
51987;SDS011;38003;52.012;4.346;2023-03-17T09:47:55;8.47;;;5.03;;
51987;SDS011;38003;52.012;4.346;2023-03-17T09:50:34;6.83;;;4.30;;
51987;SDS011;38003;52.012;4.346;2023-03-17T09:53:05;9.70;;;4.53;;
51987;SDS011;38003;52.012;4.346;2023-03-17T09:55:39;6.03;;;4.57;;
51987;SDS011;38003;52.012;4.346;2023-03-17T09:58:08;8.37;;;5.10;;
51987;SDS011;38003;52.012;4.346;2023-03-17T10:00:36;7.50;;;4.80;;
51987;SDS011;38003;52.012;4.346;2023-03-17T10:03:08;5.77;;;4.60;;
51987;SDS011;38003;52.012;4.346;2023-03-17T10:05:39;6.37;;;4.30;;
51987;SDS011;38003;52.012;4.346;2023-03-17T10:08:08;8.20;;;4.63;;
51987;SDS011;38003;52.012;4.346;2023-03-17T10:10:56;6.63;;;4.10;;
51987;SDS011;38003;52.012;4.346;2023-03-17T10:13:28;8.30;;;4.60;;
51987;SDS011;38003;52.012;4.346;2023-03-17T10:15:59;7.23;;;4.93;;
51987;SDS011;38003;52.012;4.346;2023-03-17T10:18:31;4.57;;;4.17;;
51987;SDS011;38003;52.012;4.346;2023-03-17T10:21:02;6.20;;;4.40;;
51987;SDS011;38003;52.012;4.346;2023-03-17T10:23:31;7.00;;;4.40;;
51987;SDS011;38003;52.012;4.346;2023-03-17T10:26:01;7.83;;;4.83;;
51987;SDS011;38003;52.012;4.346;2023-03-17T10:28:35;7.43;;;4.90;;
51987;SDS011;38003;52.012;4.346;2023-03-17T10:31:11;8.17;;;4.87;;
51987;SDS011;38003;52.012;4.346;2023-03-17T10:33:40;6.83;;;4.43;;
51987;SDS011;38003;52.012;4.346;2023-03-17T10:36:13;5.43;;;4.93;;
51987;SDS011;38003;52.012;4.346;2023-03-17T10:38:47;7.30;;;4.90;;
51987;SDS011;38003;52.012;4.346;2023-03-17T10:41:17;6.37;;;4.87;;
51987;SDS011;38003;52.012;4.346;2023-03-17T10:43:46;5.80;;;4.83;;
51987;SDS011;38003;52.012;4.346;2023-03-17T10:46:16;6.57;;;4.57;;
51987;SDS011;38003;52.012;4.346;2023-03-17T10:48:50;7.00;;;5.00;;
51987;SDS011;38003;52.012;4.346;2023-03-17T10:51:24;7.10;;;4.87;;
51987;SDS011;38003;52.012;4.346;2023-03-17T10:53:56;5.73;;;4.70;;
51987;SDS011;38003;52.012;4.346;2023-03-17T10:56:27;7.93;;;5.30;;
51987;SDS011;38003;52.012;4.346;2023-03-17T10:58:56;6.63;;;5.10;;
51987;SDS011;38003;52.012;4.346;2023-03-17T11:01:33;6.43;;;4.90;;
51987;SDS011;38003;52.012;4.346;2023-03-17T11:04:17;9.87;;;5.13;;
51987;SDS011;38003;52.012;4.346;2023-03-17T11:06:49;7.23;;;4.83;;
51987;SDS011;38003;52.012;4.346;2023-03-17T11:09:18;5.13;;;4.53;;
51987;SDS011;38003;52.012;4.346;2023-03-17T11:11:48;8.97;;;5.40;;
51987;SDS011;38003;52.012;4.346;2023-03-17T11:14:17;7.80;;;4.87;;
51987;SDS011;38003;52.012;4.346;2023-03-17T11:16:47;6.33;;;4.80;;
51987;SDS011;38003;52.012;4.346;2023-03-17T11:19:19;10.13;;;5.20;;
51987;SDS011;38003;52.012;4.346;2023-03-17T11:21:53;8.23;;;6.10;;
51987;SDS011;38003;52.012;4.346;2023-03-17T11:24:22;7.97;;;5.67;;
51987;SDS011;38003;52.012;4.346;2023-03-17T11:26:56;6.63;;;5.17;;
51987;SDS011;38003;52.012;4.346;2023-03-17T11:29:27;7.67;;;5.60;;
51987;SDS011;38003;52.012;4.346;2023-03-17T11:32:00;10.53;;;6.00;;
51987;SDS011;38003;52.012;4.346;2023-03-17T11:34:40;7.53;;;5.17;;
51987;SDS011;38003;52.012;4.346;2023-03-17T11:37:17;10.67;;;5.60;;
51987;SDS011;38003;52.012;4.346;2023-03-17T11:39:49;9.20;;;5.87;;
51987;SDS011;38003;52.012;4.346;2023-03-17T11:42:21;9.40;;;6.03;;
51987;SDS011;38003;52.012;4.346;2023-03-17T11:44:59;8.73;;;5.57;;
51987;SDS011;38003;52.012;4.346;2023-03-17T11:47:35;6.27;;;5.40;;
51987;SDS011;38003;52.012;4.346;2023-03-17T11:50:06;9.53;;;6.33;;
51987;SDS011;38003;52.012;4.346;2023-03-17T11:52:42;9.57;;;6.07;;
51987;SDS011;38003;52.012;4.346;2023-03-17T11:55:13;8.80;;;5.83;;
51987;SDS011;38003;52.012;4.346;2023-03-17T11:57:45;7.80;;;5.73;;
51987;SDS011;38003;52.012;4.346;2023-03-17T12:00:15;10.13;;;5.57;;
51987;SDS011;38003;52.012;4.346;2023-03-17T12:02:48;8.83;;;5.87;;
51987;SDS011;38003;52.012;4.346;2023-03-17T12:05:19;6.53;;;5.53;;
51987;SDS011;38003;52.012;4.346;2023-03-17T12:07:51;7.67;;;5.53;;
51987;SDS011;38003;52.012;4.346;2023-03-17T12:10:21;9.53;;;5.20;;
51987;SDS011;38003;52.012;4.346;2023-03-17T12:12:51;8.23;;;5.53;;
51987;SDS011;38003;52.012;4.346;2023-03-17T12:15:24;9.53;;;5.67;;
51987;SDS011;38003;52.012;4.346;2023-03-17T12:17:55;9.13;;;5.30;;
51987;SDS011;38003;52.012;4.346;2023-03-17T12:20:25;7.53;;;5.43;;
51987;SDS011;38003;52.012;4.346;2023-03-17T12:23:00;9.93;;;5.77;;
51987;SDS011;38003;52.012;4.346;2023-03-17T12:25:30;7.77;;;5.50;;
51987;SDS011;38003;52.012;4.346;2023-03-17T12:27:59;8.47;;;6.03;;
51987;SDS011;38003;52.012;4.346;2023-03-17T12:30:30;10.17;;;5.80;;
51987;SDS011;38003;52.012;4.346;2023-03-17T12:33:05;9.63;;;6.37;;
51987;SDS011;38003;52.012;4.346;2023-03-17T12:35:37;8.17;;;6.07;;
51987;SDS011;38003;52.012;4.346;2023-03-17T12:38:08;8.97;;;5.80;;
51987;SDS011;38003;52.012;4.346;2023-03-17T12:40:41;7.90;;;5.77;;
51987;SDS011;38003;52.012;4.346;2023-03-17T12:43:19;9.00;;;6.10;;
51987;SDS011;38003;52.012;4.346;2023-03-17T12:45:54;8.47;;;5.53;;
51987;SDS011;38003;52.012;4.346;2023-03-17T12:51:16;10.17;;;6.00;;
51987;SDS011;38003;52.012;4.346;2023-03-17T12:53:52;7.57;;;5.77;;
51987;SDS011;38003;52.012;4.346;2023-03-17T12:56:21;8.63;;;5.60;;
51987;SDS011;38003;52.012;4.346;2023-03-17T12:58:52;8.87;;;5.77;;
51987;SDS011;38003;52.012;4.346;2023-03-17T13:01:23;8.93;;;5.73;;
51987;SDS011;38003;52.012;4.346;2023-03-17T13:03:56;7.50;;;5.07;;
51987;SDS011;38003;52.012;4.346;2023-03-17T13:06:28;8.13;;;5.73;;
51987;SDS011;38003;52.012;4.346;2023-03-17T13:08:58;7.83;;;6.17;;
51987;SDS011;38003;52.012;4.346;2023-03-17T13:11:48;9.07;;;6.13;;
51987;SDS011;38003;52.012;4.346;2023-03-17T13:14:23;8.37;;;6.47;;
51987;SDS011;38003;52.012;4.346;2023-03-17T13:16:54;8.83;;;6.27;;
51987;SDS011;38003;52.012;4.346;2023-03-17T13:19:30;9.47;;;5.93;;
51987;SDS011;38003;52.012;4.346;2023-03-17T13:24:43;12.73;;;6.40;;
51987;SDS011;38003;52.012;4.346;2023-03-17T13:30:41;8.00;;;6.17;;
51987;SDS011;38003;52.012;4.346;2023-03-17T13:32:53;8.87;;;5.70;;
51987;SDS011;38003;52.012;4.346;2023-03-17T13:35:32;8.70;;;5.73;;
51987;SDS011;38003;52.012;4.346;2023-03-17T13:38:08;7.27;;;5.50;;
51987;SDS011;38003;52.012;4.346;2023-03-17T13:40:43;7.83;;;5.67;;
51987;SDS011;38003;52.012;4.346;2023-03-17T13:43:17;7.10;;;5.40;;
51987;SDS011;38003;52.012;4.346;2023-03-17T13:45:50;8.87;;;5.67;;
51987;SDS011;38003;52.012;4.346;2023-03-17T13:48:26;7.00;;;5.53;;
51987;SDS011;38003;52.012;4.346;2023-03-17T13:50:58;7.27;;;5.53;;
51987;SDS011;38003;52.012;4.346;2023-03-17T13:53:28;10.80;;;5.97;;
51987;SDS011;38003;52.012;4.346;2023-03-17T13:58:55;9.27;;;5.80;;
51987;SDS011;38003;52.012;4.346;2023-03-17T14:01:25;9.43;;;5.73;;
51987;SDS011;38003;52.012;4.346;2023-03-17T14:03:55;6.30;;;5.20;;
51987;SDS011;38003;52.012;4.346;2023-03-17T14:06:25;7.07;;;5.17;;
51987;SDS011;38003;52.012;4.346;2023-03-17T14:08:58;10.20;;;5.47;;
51987;SDS011;38003;52.012;4.346;2023-03-17T14:11:28;8.17;;;5.40;;
51987;SDS011;38003;52.012;4.346;2023-03-17T14:17:00;8.57;;;5.47;;
51987;SDS011;38003;52.012;4.346;2023-03-17T14:19:31;8.17;;;5.03;;
51987;SDS011;38003;52.012;4.346;2023-03-17T14:22:03;6.23;;;4.87;;
51987;SDS011;38003;52.012;4.346;2023-03-17T14:24:44;6.90;;;4.80;;
51987;SDS011;38003;52.012;4.346;2023-03-17T14:27:13;7.97;;;4.83;;
51987;SDS011;38003;52.012;4.346;2023-03-17T14:29:41;6.60;;;4.70;;
51987;SDS011;38003;52.012;4.346;2023-03-17T14:32:12;6.57;;;4.67;;
51987;SDS011;38003;52.012;4.346;2023-03-17T14:34:41;5.20;;;4.63;;
51987;SDS011;38003;52.012;4.346;2023-03-17T14:37:10;6.80;;;4.50;;
51987;SDS011;38003;52.012;4.346;2023-03-17T14:39:43;8.17;;;4.53;;
51987;SDS011;38003;52.012;4.346;2023-03-17T14:42:11;7.90;;;4.83;;
51987;SDS011;38003;52.012;4.346;2023-03-17T14:44:40;6.33;;;4.40;;
51987;SDS011;38003;52.012;4.346;2023-03-17T14:47:13;7.53;;;4.20;;
51987;SDS011;38003;52.012;4.346;2023-03-17T14:49:43;9.07;;;5.00;;
51987;SDS011;38003;52.012;4.346;2023-03-17T14:52:18;5.80;;;4.50;;
51987;SDS011;38003;52.012;4.346;2023-03-17T14:54:49;6.80;;;4.57;;
51987;SDS011;38003;52.012;4.346;2023-03-17T14:57:20;8.77;;;4.70;;
51987;SDS011;38003;52.012;4.346;2023-03-17T14:59:56;6.80;;;4.50;;
51987;SDS011;38003;52.012;4.346;2023-03-17T15:02:30;7.27;;;4.20;;
51987;SDS011;38003;52.012;4.346;2023-03-17T15:05:04;8.83;;;4.57;;
51987;SDS011;38003;52.012;4.346;2023-03-17T15:07:35;8.00;;;5.27;;
51987;SDS011;38003;52.012;4.346;2023-03-17T15:10:05;5.20;;;4.32;;
51987;SDS011;38003;52.012;4.346;2023-03-17T15:12:33;7.83;;;4.83;;
51987;SDS011;38003;52.012;4.346;2023-03-17T15:15:03;7.50;;;5.13;;
51987;SDS011;38003;52.012;4.346;2023-03-17T15:17:34;8.47;;;4.93;;
51987;SDS011;38003;52.012;4.346;2023-03-17T15:20:03;6.17;;;4.23;;
51987;SDS011;38003;52.012;4.346;2023-03-17T15:22:38;7.33;;;4.50;;
51987;SDS011;38003;52.012;4.346;2023-03-17T15:25:17;7.37;;;4.30;;